createdAt,value
2022-12-28T00:02:23.484Z,3.00
2022-12-28T00:07:43.946Z,3.00
2022-12-28T00:10:10.373Z,4.00
2022-12-28T00:12:36.695Z,3.33
2022-12-28T00:15:03.046Z,3.00
2022-12-28T00:17:29.388Z,2.33
2022-12-28T00:22:39.623Z,3.33
2022-12-28T00:25:05.988Z,2.33
2022-12-28T00:27:32.381Z,4.00
2022-12-28T00:29:58.724Z,4.00
2022-12-28T00:32:25.135Z,3.33
2022-12-28T00:37:35.299Z,3.00
2022-12-28T00:40:01.684Z,3.33
2022-12-28T00:42:28.068Z,3.00
2022-12-28T00:44:54.414Z,3.00
2022-12-28T00:47:20.748Z,3.00
2022-12-28T00:52:41.099Z,2.00
2022-12-28T00:55:07.554Z,4.00
2022-12-28T00:57:33.871Z,1.67
2022-12-28T01:00:00.187Z,2.33
2022-12-28T01:02:26.610Z,3.67
2022-12-28T01:07:36.709Z,3.33
2022-12-28T01:10:03.067Z,3.33
2022-12-28T01:12:33.139Z,3.33
2022-12-28T01:15:02.610Z,2.33
2022-12-28T01:17:28.948Z,3.33
2022-12-28T01:22:48.912Z,3.33
2022-12-28T01:25:15.251Z,2.00
2022-12-28T01:27:41.556Z,2.33
2022-12-28T01:30:07.917Z,2.00
2022-12-28T01:32:34.275Z,2.00
2022-12-28T01:37:44.412Z,2.33
2022-12-28T01:40:10.738Z,3.67
2022-12-28T01:42:37.093Z,3.33
2022-12-28T01:45:03.418Z,2.33
2022-12-28T01:47:29.751Z,2.33
2022-12-28T01:49:56.058Z,2.33
2022-12-28T01:52:22.434Z,2.00
2022-12-28T01:54:48.745Z,1.00
2022-12-28T01:57:15.110Z,2.33
2022-12-28T01:59:41.435Z,3.00
2022-12-28T02:02:07.869Z,0.00
2022-12-28T02:04:34.443Z,2.67
2022-12-28T02:07:00.782Z,1.67
2022-12-28T02:09:29.896Z,2.17
2022-12-28T02:11:56.236Z,3.00
2022-12-28T02:14:22.596Z,2.33
2022-12-28T02:16:48.972Z,2.33
2022-12-28T02:19:15.351Z,2.00
2022-12-28T02:21:41.677Z,1.33
2022-12-28T02:24:10.783Z,2.17
2022-12-28T02:26:37.125Z,3.00
2022-12-28T02:29:03.525Z,3.00
2022-12-28T02:31:29.843Z,2.33
2022-12-28T02:33:56.180Z,3.00
2022-12-28T02:36:25.357Z,2.00
2022-12-28T02:38:51.688Z,3.00
2022-12-28T02:41:18.033Z,2.33
2022-12-28T02:43:44.360Z,2.33
2022-12-28T02:46:10.745Z,1.67
2022-12-28T02:48:37.097Z,3.33
2022-12-28T02:51:03.434Z,4.33
2022-12-28T02:56:23.756Z,3.00
2022-12-28T02:58:50.092Z,4.00
2022-12-28T03:01:16.479Z,3.00
2022-12-28T03:03:42.887Z,4.00
2022-12-28T03:06:09.211Z,1.33
2022-12-28T03:11:20.603Z,3.00
2022-12-28T03:13:46.929Z,2.33
2022-12-28T03:16:13.333Z,3.00
2022-12-28T03:18:39.726Z,3.00
2022-12-28T03:21:06.129Z,4.00
2022-12-28T03:26:16.580Z,4.00
2022-12-28T03:28:42.950Z,2.67
2022-12-28T03:31:09.478Z,1.67
2022-12-28T03:33:35.891Z,2.33
2022-12-28T03:36:02.203Z,2.33
2022-12-28T03:41:22.689Z,4.00
2022-12-28T03:43:49.042Z,4.00
2022-12-28T03:46:16.300Z,2.50
2022-12-28T03:48:42.654Z,2.67
2022-12-28T03:51:08.983Z,2.33
2022-12-28T03:56:29.239Z,2.67
2022-12-28T03:58:55.570Z,3.00
2022-12-28T04:01:21.966Z,3.33
2022-12-28T04:03:48.364Z,2.67
2022-12-28T04:06:15.572Z,3.50
2022-12-28T04:11:25.968Z,3.67
2022-12-28T04:13:52.407Z,3.33
2022-12-28T04:16:18.806Z,3.00
2022-12-28T04:18:45.207Z,4.00
2022-12-28T04:21:12.539Z,3.50
2022-12-28T04:26:22.841Z,3.33
2022-12-28T04:28:49.162Z,3.33
2022-12-28T04:31:15.583Z,4.00
2022-12-28T04:33:41.966Z,3.00
2022-12-28T04:36:08.305Z,3.33
2022-12-28T04:41:28.482Z,2.33
2022-12-28T04:43:54.904Z,2.00
2022-12-28T04:46:21.319Z,3.00
2022-12-28T04:48:47.720Z,4.67
2022-12-28T04:51:14.925Z,3.00
2022-12-28T04:56:25.233Z,3.33
2022-12-28T04:58:51.589Z,4.00
2022-12-28T05:01:18.942Z,3.75
2022-12-28T05:03:51.058Z,3.33
2022-12-28T05:06:21.279Z,3.67
2022-12-28T05:11:31.483Z,3.00
2022-12-28T05:13:57.807Z,3.00
2022-12-28T05:16:24.294Z,3.00
2022-12-28T05:18:50.657Z,4.00
2022-12-28T05:21:17.880Z,3.50
2022-12-28T05:26:38.111Z,3.00
2022-12-28T05:29:04.467Z,4.00
2022-12-28T05:31:30.830Z,3.33
2022-12-28T05:33:57.248Z,3.00
2022-12-28T05:36:23.592Z,4.33
2022-12-28T05:41:33.936Z,5.00
2022-12-28T05:44:00.277Z,4.33
2022-12-28T05:46:26.706Z,2.67
2022-12-28T05:48:53.099Z,3.33
2022-12-28T05:51:20.315Z,3.25
2022-12-28T05:53:46.705Z,4.00
2022-12-28T05:56:14.610Z,4.00
2022-12-28T05:58:41.347Z,4.00
2022-12-28T06:01:07.707Z,4.00
2022-12-28T06:03:34.202Z,2.00
2022-12-28T06:06:00.623Z,4.00
2022-12-28T06:08:26.954Z,4.33
2022-12-28T06:10:53.315Z,4.67
2022-12-28T06:13:20.520Z,3.50
2022-12-28T06:15:46.902Z,5.00
2022-12-28T06:18:14.116Z,6.00
2022-12-28T06:20:40.462Z,5.33
2022-12-28T06:23:06.816Z,6.00
2022-12-28T06:25:34.029Z,7.00
2022-12-28T06:28:00.403Z,7.33
2022-12-28T06:30:26.725Z,6.00
2022-12-28T06:32:53.084Z,5.00
2022-12-28T06:35:19.430Z,6.33
2022-12-28T06:37:45.758Z,5.67
2022-12-28T06:40:12.254Z,40.00
2022-12-28T06:42:39.697Z,39.33
2022-12-28T06:45:06.264Z,35.50
2022-12-28T06:47:32.741Z,38.00
2022-12-28T06:49:59.204Z,32.00
2022-12-28T06:52:25.691Z,32.00
2022-12-28T06:54:52.163Z,30.00
2022-12-28T06:57:18.712Z,28.50
2022-12-28T06:59:45.184Z,27.50
2022-12-28T07:02:11.871Z,23.50
2022-12-28T07:04:38.788Z,24.50
2022-12-28T07:07:05.466Z,25.00
2022-12-28T07:09:32.837Z,17.67
2022-12-28T07:14:45.422Z,17.67
2022-12-28T07:17:11.879Z,18.00
2022-12-28T07:19:39.324Z,15.33
2022-12-28T07:22:06.971Z,16.67
2022-12-28T07:24:34.557Z,19.00
2022-12-28T07:29:46.134Z,15.00
2022-12-28T07:32:13.403Z,15.00
2022-12-28T07:34:43.344Z,13.00
2022-12-28T07:37:12.545Z,12.83
2022-12-28T07:39:40.907Z,13.60
2022-12-28T07:44:52.453Z,12.00
2022-12-28T07:47:21.616Z,10.00
2022-12-28T07:49:49.840Z,9.00
2022-12-28T07:52:16.294Z,12.00
2022-12-28T07:54:42.711Z,10.00
2022-12-28T08:00:03.048Z,19.50
2022-12-28T08:02:30.501Z,20.00
2022-12-28T08:04:56.978Z,15.50
2022-12-28T08:07:23.419Z,16.50
2022-12-28T08:09:49.833Z,18.00
2022-12-28T08:15:11.363Z,16.00
2022-12-28T08:17:37.823Z,25.00
2022-12-28T08:20:04.297Z,30.00
2022-12-28T08:22:30.805Z,32.50
2022-12-28T08:24:58.208Z,37.33
2022-12-28T08:30:19.782Z,39.00
2022-12-28T08:32:47.284Z,34.33
2022-12-28T08:35:14.674Z,34.00
2022-12-28T08:37:41.163Z,38.00
2022-12-28T08:40:07.666Z,37.00
2022-12-28T08:45:19.826Z,15.67
2022-12-28T08:47:46.299Z,28.00
2022-12-28T08:50:18.096Z,30.50
2022-12-28T08:52:46.331Z,27.00
2022-12-28T08:55:12.813Z,28.00
2022-12-28T08:57:39.273Z,24.00
2022-12-28T09:00:05.734Z,24.00
2022-12-28T09:02:33.272Z,22.33
2022-12-28T09:04:59.887Z,29.00
2022-12-28T09:07:26.344Z,21.50
2022-12-28T09:09:53.855Z,22.33
2022-12-28T09:15:15.057Z,24.50
2022-12-28T09:17:41.530Z,24.50
2022-12-28T09:20:08.026Z,24.00
2022-12-28T09:22:34.549Z,23.00
2022-12-28T09:25:00.990Z,20.00
2022-12-28T09:30:13.443Z,15.00
2022-12-28T09:32:40.810Z,21.00
2022-12-28T09:35:07.277Z,21.00
2022-12-28T09:37:34.630Z,19.67
2022-12-28T09:40:02.124Z,18.33
2022-12-28T09:45:13.578Z,20.50
2022-12-28T09:47:40.911Z,20.33
2022-12-28T09:50:08.303Z,17.00
2022-12-28T09:52:35.630Z,18.33
2022-12-28T09:55:03.015Z,23.00
2022-12-28T09:57:30.414Z,20.33
2022-12-28T09:59:57.713Z,16.33
2022-12-28T10:02:25.168Z,17.00
2022-12-28T10:04:52.643Z,16.00
2022-12-28T10:07:19.887Z,16.00
2022-12-28T10:09:48.222Z,15.00
2022-12-28T10:12:15.498Z,16.33
2022-12-28T10:14:42.006Z,13.00
2022-12-28T10:17:08.471Z,14.00
2022-12-28T10:19:34.926Z,14.00
2022-12-28T10:22:01.369Z,14.50
2022-12-28T10:24:32.093Z,15.20
2022-12-28T10:26:59.284Z,12.50
2022-12-28T10:29:26.596Z,15.67
2022-12-28T10:31:53.006Z,12.00
2022-12-28T10:34:19.527Z,13.00
2022-12-28T10:36:46.776Z,12.25
2022-12-28T10:39:13.198Z,12.00
2022-12-28T10:41:43.445Z,12.33
2022-12-28T10:44:38.435Z,8.50
2022-12-28T10:46:59.858Z,12.17
2022-12-28T10:49:26.298Z,11.00
2022-12-28T10:51:52.732Z,11.50
2022-12-28T10:54:27.755Z,11.50
2022-12-28T10:56:56.916Z,10.00
2022-12-28T10:59:23.403Z,11.00
2022-12-28T11:01:50.833Z,12.00
2022-12-28T11:04:17.506Z,10.00
2022-12-28T11:06:43.970Z,10.00
2022-12-28T11:09:11.279Z,11.75
2022-12-28T11:11:37.674Z,8.33
2022-12-28T11:14:04.975Z,9.25
2022-12-28T11:16:31.539Z,12.00
2022-12-28T11:19:00.718Z,9.17
2022-12-28T11:21:27.187Z,11.50
2022-12-28T11:23:53.537Z,8.00
2022-12-28T11:26:19.956Z,10.67
2022-12-28T11:28:47.247Z,11.00
2022-12-28T11:33:58.029Z,8.00
2022-12-28T11:36:24.450Z,11.00
2022-12-28T11:38:50.920Z,10.00
2022-12-28T11:41:18.134Z,7.00
2022-12-28T11:43:44.543Z,10.00
2022-12-28T11:49:06.105Z,11.00
2022-12-28T11:51:32.703Z,12.00
2022-12-28T11:53:59.130Z,11.00
2022-12-28T11:56:25.533Z,11.00
2022-12-28T11:58:51.958Z,10.00
2022-12-28T12:04:03.159Z,10.00
2022-12-28T12:06:34.123Z,10.75
2022-12-28T12:09:04.765Z,9.00
2022-12-28T12:11:31.170Z,11.00
2022-12-28T12:13:57.594Z,10.00
2022-12-28T12:19:07.582Z,6.67
2022-12-28T12:21:33.916Z,6.00
2022-12-28T12:24:00.277Z,7.00
2022-12-28T12:26:26.640Z,8.33
2022-12-28T12:28:53.875Z,8.00
2022-12-28T12:34:04.167Z,7.00
2022-12-28T12:36:30.495Z,6.67
2022-12-28T12:38:56.834Z,7.67
2022-12-28T12:41:23.193Z,6.67
2022-12-28T12:43:49.527Z,5.00
2022-12-28T12:49:09.879Z,5.67
2022-12-28T12:51:36.227Z,5.33
2022-12-28T12:54:02.575Z,5.33
2022-12-28T12:56:29.083Z,5.00
2022-12-28T12:58:55.417Z,6.00
2022-12-28T13:04:05.866Z,5.33
2022-12-28T13:06:32.180Z,6.00
2022-12-28T13:09:04.811Z,4.33
2022-12-28T13:11:31.909Z,5.00
2022-12-28T13:13:58.285Z,5.00
2022-12-28T13:19:18.688Z,5.67
2022-12-28T13:21:45.047Z,7.00
2022-12-28T13:24:11.384Z,7.00
2022-12-28T13:26:37.745Z,7.00
2022-12-28T13:29:04.138Z,6.33
2022-12-28T13:34:24.388Z,7.50
2022-12-28T13:36:50.750Z,7.33
2022-12-28T13:39:17.953Z,7.25
2022-12-28T13:41:44.333Z,8.33
2022-12-28T13:44:11.548Z,8.75
2022-12-28T13:49:22.522Z,8.00
2022-12-28T13:51:53.311Z,8.33
2022-12-28T13:54:21.062Z,8.75
2022-12-28T13:56:47.432Z,6.67
2022-12-28T13:59:14.674Z,8.50
2022-12-28T14:04:54.934Z,9.00
2022-12-28T14:07:12.105Z,7.25
2022-12-28T14:09:39.390Z,11.50
2022-12-28T14:12:06.627Z,11.25
2022-12-28T14:14:33.009Z,7.67
2022-12-28T14:19:44.878Z,9.00
2022-12-28T14:22:14.151Z,10.80
2022-12-28T14:24:40.646Z,18.00
2022-12-28T14:27:07.024Z,8.50
2022-12-28T14:29:34.248Z,8.25
2022-12-28T14:34:55.935Z,6.00
2022-12-28T14:37:22.527Z,4.67
2022-12-28T14:39:48.855Z,7.33
2022-12-28T14:42:16.267Z,4.75
2022-12-28T14:44:43.992Z,4.67
2022-12-28T14:50:04.171Z,5.67
2022-12-28T14:52:30.496Z,6.00
2022-12-28T14:54:56.841Z,6.00
2022-12-28T14:57:23.247Z,7.67
2022-12-28T14:59:49.752Z,7.00
2022-12-28T15:05:01.060Z,10.00
2022-12-28T15:07:29.756Z,7.50
2022-12-28T15:09:57.048Z,15.67
2022-12-28T15:12:24.319Z,12.67
2022-12-28T15:14:51.616Z,17.33
2022-12-28T15:17:18.095Z,13.00
2022-12-28T15:19:44.557Z,12.00
2022-12-28T15:22:10.977Z,10.50
2022-12-28T15:24:39.287Z,11.20
2022-12-28T15:27:05.760Z,6.00
2022-12-28T15:30:04.536Z,16.67
2022-12-28T15:32:20.441Z,15.00
2022-12-28T15:34:47.027Z,16.00
2022-12-28T15:37:13.465Z,11.50
2022-12-28T15:39:39.895Z,9.67
2022-12-28T15:42:06.306Z,10.00
2022-12-28T15:44:32.753Z,11.50
2022-12-28T15:47:01.483Z,9.33
2022-12-28T15:49:28.208Z,11.00
2022-12-28T15:51:54.661Z,15.50
2022-12-28T15:54:21.917Z,9.25
2022-12-28T15:56:49.183Z,8.50
2022-12-28T15:59:15.534Z,7.00
2022-12-28T16:01:42.876Z,6.00
2022-12-28T16:04:09.349Z,6.00
2022-12-28T16:06:41.838Z,4.67
2022-12-28T16:09:10.608Z,5.00
2022-12-28T16:11:36.950Z,5.00
2022-12-28T16:14:03.329Z,9.00
2022-12-28T16:16:29.819Z,6.00
2022-12-28T16:18:57.148Z,9.75
2022-12-28T16:21:23.541Z,7.33
2022-12-28T16:23:49.915Z,9.33
2022-12-28T16:26:16.459Z,8.67
2022-12-28T16:28:42.808Z,7.67
2022-12-28T16:31:10.122Z,4.00
2022-12-28T16:33:36.486Z,5.00
2022-12-28T16:38:47.186Z,4.33
2022-12-28T16:41:13.528Z,4.00
2022-12-28T16:43:39.888Z,3.67
2022-12-28T16:46:06.457Z,5.00
2022-12-28T16:48:32.863Z,5.33
2022-12-28T16:53:42.996Z,3.00
2022-12-28T16:56:10.202Z,4.00
2022-12-28T16:58:36.626Z,5.00
2022-12-28T17:01:03.043Z,3.00
2022-12-28T17:03:29.605Z,4.67
2022-12-28T17:08:49.678Z,3.33
2022-12-28T17:11:16.026Z,5.00
2022-12-28T17:13:42.439Z,4.00
2022-12-28T17:16:08.982Z,5.00
2022-12-28T17:18:35.411Z,4.00
2022-12-28T17:23:48.633Z,2.00
2022-12-28T17:26:15.870Z,4.00
2022-12-28T17:28:42.665Z,5.00
2022-12-28T17:31:09.060Z,4.67
2022-12-28T17:33:39.322Z,5.00
2022-12-28T17:39:00.523Z,5.00
2022-12-28T17:41:28.195Z,18.00
2022-12-28T17:43:54.679Z,11.00
2022-12-28T17:46:21.978Z,8.75
2022-12-28T17:48:48.466Z,10.00
2022-12-28T17:53:59.746Z,12.00
2022-12-28T17:56:26.170Z,11.50
2022-12-28T17:58:52.621Z,10.50
2022-12-28T18:01:19.187Z,11.00
2022-12-28T18:03:46.599Z,12.00
2022-12-28T18:08:57.246Z,14.50
2022-12-28T18:11:25.557Z,12.00
2022-12-28T18:13:53.825Z,12.80
2022-12-28T18:16:20.282Z,10.00
2022-12-28T18:18:46.769Z,11.00
2022-12-28T18:24:08.379Z,32.33
2022-12-28T18:26:35.778Z,15.67
2022-12-28T18:29:04.987Z,12.00
2022-12-28T18:31:31.374Z,12.00
2022-12-28T18:33:57.831Z,11.00
2022-12-28T18:39:08.400Z,11.00
2022-12-28T18:41:34.740Z,5.00
2022-12-28T18:44:02.296Z,11.00
2022-12-28T18:46:28.667Z,3.00
2022-12-28T18:48:55.107Z,12.50
2022-12-28T18:54:15.730Z,23.50
2022-12-28T18:56:43.394Z,12.00
2022-12-28T18:59:09.899Z,15.50
2022-12-28T19:04:22.967Z,15.00
2022-12-28T19:09:43.348Z,17.50
2022-12-28T19:12:10.629Z,15.00
2022-12-28T19:14:39.102Z,14.40
2022-12-28T19:17:07.563Z,13.00
2022-12-28T19:19:35.887Z,15.20
2022-12-28T19:24:50.739Z,11.80
2022-12-28T19:27:17.151Z,11.50
2022-12-28T19:29:44.407Z,12.00
2022-12-28T19:32:10.852Z,20.00
2022-12-28T19:34:38.308Z,18.67
2022-12-28T19:39:53.396Z,20.50
2022-12-28T19:42:24.607Z,16.40
2022-12-28T19:44:51.411Z,14.00
2022-12-28T19:47:18.684Z,13.00
2022-12-28T19:49:47.020Z,13.20
2022-12-28T19:55:12.426Z,14.67
2022-12-28T19:57:39.837Z,21.00
2022-12-28T20:00:07.203Z,26.67
2022-12-28T20:02:33.745Z,15.50
2022-12-28T20:05:02.139Z,12.20
2022-12-28T20:10:22.632Z,12.00
2022-12-28T20:12:50.912Z,12.00
2022-12-28T20:15:17.365Z,13.00
2022-12-28T20:17:46.629Z,11.17
2022-12-28T20:20:17.275Z,11.00
2022-12-28T20:25:28.614Z,11.00
2022-12-28T20:27:55.080Z,14.00
2022-12-28T20:30:21.661Z,9.00
2022-12-28T20:32:48.098Z,16.00
2022-12-28T20:35:14.572Z,16.00
2022-12-28T20:40:39.783Z,12.67
2022-12-28T20:43:07.214Z,11.00
2022-12-28T20:45:33.667Z,13.00
2022-12-28T20:48:00.329Z,11.00
2022-12-28T20:50:26.856Z,13.00
2022-12-28T20:52:55.160Z,11.00
2022-12-28T20:55:21.689Z,12.00
2022-12-28T20:57:49.105Z,35.00
2022-12-28T21:00:15.759Z,30.00
2022-12-28T21:02:43.005Z,14.67
2022-12-28T21:05:12.961Z,15.14
2022-12-28T21:07:41.330Z,12.80
2022-12-28T21:10:07.766Z,13.50
2022-12-28T21:12:34.405Z,12.00
2022-12-28T21:15:01.651Z,9.00
2022-12-28T21:17:28.124Z,11.00
2022-12-28T21:19:55.398Z,10.75
2022-12-28T21:22:22.741Z,18.67
2022-12-28T21:24:51.925Z,11.83
2022-12-28T21:27:18.406Z,10.00
2022-12-28T21:29:44.800Z,8.33
2022-12-28T21:32:11.283Z,9.00
2022-12-28T21:34:37.783Z,8.00
2022-12-28T21:37:04.148Z,7.33
2022-12-28T21:39:30.536Z,7.67
2022-12-28T21:41:56.919Z,5.67
2022-12-28T21:44:23.338Z,8.00
2022-12-28T21:46:49.715Z,5.33
2022-12-28T21:49:16.110Z,7.33
2022-12-28T21:51:42.482Z,5.00
2022-12-28T21:54:08.843Z,5.33
2022-12-28T21:56:35.229Z,4.00
2022-12-28T21:59:01.577Z,6.00
2022-12-28T22:01:28.061Z,6.00
2022-12-28T22:03:54.452Z,4.67
2022-12-28T22:06:20.833Z,6.00
2022-12-28T22:08:47.229Z,5.00
2022-12-28T22:14:08.196Z,5.00
2022-12-28T22:16:34.757Z,5.67
2022-12-28T22:19:02.998Z,5.00
2022-12-28T22:21:29.798Z,5.00
2022-12-28T22:23:56.116Z,3.00
2022-12-28T22:29:06.203Z,5.00
2022-12-28T22:31:32.629Z,4.00
2022-12-28T22:34:04.941Z,6.33
2022-12-28T22:36:33.058Z,4.00
2022-12-28T22:38:59.405Z,4.67
2022-12-28T22:44:19.479Z,5.67
2022-12-28T22:46:45.878Z,4.00
2022-12-28T22:49:12.234Z,4.67
2022-12-28T22:51:38.619Z,4.33
2022-12-28T22:54:04.985Z,5.33
2022-12-28T22:59:15.798Z,4.33
2022-12-28T23:01:42.419Z,5.33
2022-12-28T23:04:08.889Z,4.00
2022-12-28T23:06:35.250Z,2.33
2022-12-28T23:09:01.635Z,4.33
2022-12-28T23:14:12.052Z,4.33
2022-12-28T23:16:38.439Z,5.67
2022-12-28T23:19:04.913Z,4.33
2022-12-28T23:21:31.286Z,4.33
2022-12-28T23:23:57.638Z,4.00
2022-12-28T23:29:17.994Z,2.33
2022-12-28T23:31:44.371Z,3.67
2022-12-28T23:34:10.727Z,5.33
2022-12-28T23:36:37.137Z,4.33
2022-12-28T23:39:03.509Z,4.00
2022-12-28T23:44:14.725Z,4.75
2022-12-28T23:46:41.097Z,2.00
2022-12-28T23:49:07.508Z,3.00
2022-12-28T23:51:36.681Z,4.00
2022-12-28T23:54:03.031Z,3.33
2022-12-28T23:59:13.187Z,4.67
